sensor_id;sensor_type;location;lat;lon;timestamp;P1;durP1;ratioP1;P2;durP2;ratioP2
20884;SDS011;10602;48.000;9.654;2023-04-19T00:01:04;11.53;;;9.87;;
20884;SDS011;10602;48.000;9.654;2023-04-19T00:03:32;10.47;;;8.67;;
20884;SDS011;10602;48.000;9.654;2023-04-19T00:05:59;12.97;;;9.27;;
20884;SDS011;10602;48.000;9.654;2023-04-19T00:08:27;11.40;;;8.60;;
20884;SDS011;10602;48.000;9.654;2023-04-19T00:10:54;11.63;;;9.07;;
20884;SDS011;10602;48.000;9.654;2023-04-19T00:13:22;12.57;;;9.27;;
20884;SDS011;10602;48.000;9.654;2023-04-19T00:15:49;11.43;;;8.83;;
20884;SDS011;10602;48.000;9.654;2023-04-19T00:18:17;11.00;;;9.33;;
20884;SDS011;10602;48.000;9.654;2023-04-19T00:20:44;11.03;;;8.83;;
20884;SDS011;10602;48.000;9.654;2023-04-19T00:23:13;10.97;;;8.70;;
20884;SDS011;10602;48.000;9.654;2023-04-19T00:25:40;10.93;;;8.77;;
20884;SDS011;10602;48.000;9.654;2023-04-19T00:28:08;9.93;;;8.03;;
20884;SDS011;10602;48.000;9.654;2023-04-19T00:30:35;10.63;;;7.97;;
20884;SDS011;10602;48.000;9.654;2023-04-19T00:33:03;11.83;;;8.83;;
20884;SDS011;10602;48.000;9.654;2023-04-19T00:35:32;10.63;;;8.77;;
20884;SDS011;10602;48.000;9.654;2023-04-19T00:38:00;11.13;;;8.93;;
20884;SDS011;10602;48.000;9.654;2023-04-19T00:40:27;9.00;;;7.60;;
20884;SDS011;10602;48.000;9.654;2023-04-19T00:42:56;11.63;;;8.83;;
20884;SDS011;10602;48.000;9.654;2023-04-19T00:45:24;11.17;;;9.03;;
20884;SDS011;10602;48.000;9.654;2023-04-19T00:47:52;9.70;;;7.97;;
20884;SDS011;10602;48.000;9.654;2023-04-19T00:50:20;10.03;;;7.93;;
20884;SDS011;10602;48.000;9.654;2023-04-19T00:52:48;9.93;;;8.23;;
20884;SDS011;10602;48.000;9.654;2023-04-19T00:55:16;10.87;;;8.37;;
20884;SDS011;10602;48.000;9.654;2023-04-19T00:57:44;11.17;;;8.37;;
20884;SDS011;10602;48.000;9.654;2023-04-19T01:00:12;9.90;;;8.00;;
20884;SDS011;10602;48.000;9.654;2023-04-19T01:02:39;9.17;;;7.80;;
20884;SDS011;10602;48.000;9.654;2023-04-19T01:05:08;9.90;;;7.93;;
20884;SDS011;10602;48.000;9.654;2023-04-19T01:07:35;10.90;;;8.87;;
20884;SDS011;10602;48.000;9.654;2023-04-19T01:10:03;10.03;;;8.33;;
20884;SDS011;10602;48.000;9.654;2023-04-19T01:12:31;10.17;;;8.90;;
20884;SDS011;10602;48.000;9.654;2023-04-19T01:14:58;10.37;;;7.97;;
20884;SDS011;10602;48.000;9.654;2023-04-19T01:17:26;9.40;;;7.63;;
20884;SDS011;10602;48.000;9.654;2023-04-19T01:19:59;10.70;;;8.70;;
20884;SDS011;10602;48.000;9.654;2023-04-19T01:22:25;10.87;;;8.47;;
20884;SDS011;10602;48.000;9.654;2023-04-19T01:24:55;9.97;;;8.30;;
20884;SDS011;10602;48.000;9.654;2023-04-19T01:27:23;10.37;;;7.43;;
20884;SDS011;10602;48.000;9.654;2023-04-19T01:29:50;10.43;;;8.27;;
20884;SDS011;10602;48.000;9.654;2023-04-19T01:32:18;9.47;;;8.00;;
20884;SDS011;10602;48.000;9.654;2023-04-19T01:34:46;10.57;;;7.80;;
20884;SDS011;10602;48.000;9.654;2023-04-19T01:37:14;9.80;;;7.83;;
20884;SDS011;10602;48.000;9.654;2023-04-19T01:39:41;10.53;;;7.80;;
20884;SDS011;10602;48.000;9.654;2023-04-19T01:42:09;9.60;;;7.50;;
20884;SDS011;10602;48.000;9.654;2023-04-19T01:44:36;8.97;;;7.40;;
20884;SDS011;10602;48.000;9.654;2023-04-19T01:47:04;10.00;;;7.60;;
20884;SDS011;10602;48.000;9.654;2023-04-19T01:49:32;10.47;;;7.80;;
20884;SDS011;10602;48.000;9.654;2023-04-19T01:51:59;12.57;;;8.23;;
20884;SDS011;10602;48.000;9.654;2023-04-19T01:54:27;11.03;;;8.80;;
20884;SDS011;10602;48.000;9.654;2023-04-19T01:56:54;9.63;;;7.83;;
20884;SDS011;10602;48.000;9.654;2023-04-19T01:59:22;11.63;;;7.57;;
20884;SDS011;10602;48.000;9.654;2023-04-19T02:01:49;9.33;;;7.63;;
20884;SDS011;10602;48.000;9.654;2023-04-19T02:04:18;10.73;;;8.00;;
20884;SDS011;10602;48.000;9.654;2023-04-19T02:06:46;10.10;;;8.00;;
20884;SDS011;10602;48.000;9.654;2023-04-19T02:09:14;9.70;;;7.80;;
20884;SDS011;10602;48.000;9.654;2023-04-19T02:11:41;10.63;;;8.00;;
20884;SDS011;10602;48.000;9.654;2023-04-19T02:14:09;9.93;;;7.80;;
20884;SDS011;10602;48.000;9.654;2023-04-19T02:16:36;11.13;;;8.57;;
20884;SDS011;10602;48.000;9.654;2023-04-19T02:19:04;11.93;;;7.77;;
20884;SDS011;10602;48.000;9.654;2023-04-19T02:21:31;10.47;;;8.33;;
20884;SDS011;10602;48.000;9.654;2023-04-19T02:23:59;10.00;;;7.97;;
20884;SDS011;10602;48.000;9.654;2023-04-19T02:26:26;10.87;;;8.50;;
20884;SDS011;10602;48.000;9.654;2023-04-19T02:28:54;10.43;;;8.23;;
20884;SDS011;10602;48.000;9.654;2023-04-19T02:31:21;10.17;;;7.60;;
20884;SDS011;10602;48.000;9.654;2023-04-19T02:33:49;10.37;;;8.57;;
20884;SDS011;10602;48.000;9.654;2023-04-19T02:36:16;10.73;;;7.70;;
20884;SDS011;10602;48.000;9.654;2023-04-19T02:38:44;11.93;;;8.37;;
20884;SDS011;10602;48.000;9.654;2023-04-19T02:41:11;10.80;;;8.30;;
20884;SDS011;10602;48.000;9.654;2023-04-19T02:43:39;10.37;;;8.33;;
20884;SDS011;10602;48.000;9.654;2023-04-19T02:46:06;9.97;;;8.43;;
20884;SDS011;10602;48.000;9.654;2023-04-19T02:48:34;9.77;;;7.93;;
20884;SDS011;10602;48.000;9.654;2023-04-19T02:51:01;9.63;;;7.60;;
20884;SDS011;10602;48.000;9.654;2023-04-19T02:53:29;9.70;;;8.70;;
20884;SDS011;10602;48.000;9.654;2023-04-19T02:55:56;10.87;;;8.70;;
20884;SDS011;10602;48.000;9.654;2023-04-19T02:58:24;10.33;;;9.23;;
20884;SDS011;10602;48.000;9.654;2023-04-19T03:00:51;11.33;;;9.43;;
20884;SDS011;10602;48.000;9.654;2023-04-19T03:03:19;9.90;;;8.40;;
20884;SDS011;10602;48.000;9.654;2023-04-19T03:05:46;12.13;;;9.63;;
20884;SDS011;10602;48.000;9.654;2023-04-19T03:08:14;10.07;;;8.70;;
20884;SDS011;10602;48.000;9.654;2023-04-19T03:10:41;9.53;;;8.47;;
20884;SDS011;10602;48.000;9.654;2023-04-19T03:13:09;9.67;;;8.03;;
20884;SDS011;10602;48.000;9.654;2023-04-19T03:15:36;10.80;;;8.70;;
20884;SDS011;10602;48.000;9.654;2023-04-19T03:18:04;11.97;;;8.57;;
20884;SDS011;10602;48.000;9.654;2023-04-19T03:20:31;9.23;;;8.30;;
20884;SDS011;10602;48.000;9.654;2023-04-19T03:22:59;10.83;;;8.63;;
20884;SDS011;10602;48.000;9.654;2023-04-19T03:25:27;10.33;;;8.33;;
20884;SDS011;10602;48.000;9.654;2023-04-19T03:27:54;10.83;;;8.97;;
20884;SDS011;10602;48.000;9.654;2023-04-19T03:30:22;10.73;;;9.07;;
20884;SDS011;10602;48.000;9.654;2023-04-19T03:32:49;11.13;;;8.50;;
20884;SDS011;10602;48.000;9.654;2023-04-19T03:35:17;11.53;;;8.83;;
20884;SDS011;10602;48.000;9.654;2023-04-19T03:37:45;10.53;;;8.90;;
20884;SDS011;10602;48.000;9.654;2023-04-19T03:40:13;11.37;;;9.33;;
20884;SDS011;10602;48.000;9.654;2023-04-19T03:42:40;10.77;;;8.97;;
20884;SDS011;10602;48.000;9.654;2023-04-19T03:45:08;10.77;;;8.97;;
20884;SDS011;10602;48.000;9.654;2023-04-19T03:47:36;10.90;;;9.17;;
20884;SDS011;10602;48.000;9.654;2023-04-19T03:50:03;11.57;;;9.67;;
20884;SDS011;10602;48.000;9.654;2023-04-19T03:52:31;12.13;;;9.90;;
20884;SDS011;10602;48.000;9.654;2023-04-19T03:54:59;11.13;;;9.03;;
20884;SDS011;10602;48.000;9.654;2023-04-19T03:57:26;11.97;;;9.30;;
20884;SDS011;10602;48.000;9.654;2023-04-19T03:59:54;12.30;;;10.27;;
20884;SDS011;10602;48.000;9.654;2023-04-19T04:02:21;11.83;;;10.50;;
20884;SDS011;10602;48.000;9.654;2023-04-19T04:04:52;12.37;;;9.83;;
20884;SDS011;10602;48.000;9.654;2023-04-19T04:07:20;95.33;;;44.87;;
20884;SDS011;10602;48.000;9.654;2023-04-19T04:09:49;13.17;;;10.50;;
20884;SDS011;10602;48.000;9.654;2023-04-19T04:12:16;14.03;;;10.70;;
20884;SDS011;10602;48.000;9.654;2023-04-19T04:14:44;12.63;;;10.60;;
20884;SDS011;10602;48.000;9.654;2023-04-19T04:17:11;12.00;;;10.23;;
20884;SDS011;10602;48.000;9.654;2023-04-19T04:19:39;13.47;;;10.53;;
20884;SDS011;10602;48.000;9.654;2023-04-19T04:22:06;13.60;;;11.03;;
20884;SDS011;10602;48.000;9.654;2023-04-19T04:24:37;11.70;;;9.97;;
20884;SDS011;10602;48.000;9.654;2023-04-19T04:27:06;11.93;;;10.63;;
20884;SDS011;10602;48.000;9.654;2023-04-19T04:29:36;13.23;;;10.53;;
20884;SDS011;10602;48.000;9.654;2023-04-19T04:32:05;13.00;;;9.93;;
20884;SDS011;10602;48.000;9.654;2023-04-19T04:34:35;13.90;;;10.63;;
20884;SDS011;10602;48.000;9.654;2023-04-19T04:37:02;12.20;;;10.70;;
20884;SDS011;10602;48.000;9.654;2023-04-19T04:39:30;14.83;;;11.07;;
20884;SDS011;10602;48.000;9.654;2023-04-19T04:41:59;12.57;;;10.67;;
20884;SDS011;10602;48.000;9.654;2023-04-19T04:44:27;13.27;;;11.07;;
20884;SDS011;10602;48.000;9.654;2023-04-19T04:46:54;12.80;;;10.37;;
20884;SDS011;10602;48.000;9.654;2023-04-19T04:49:22;14.53;;;11.13;;
20884;SDS011;10602;48.000;9.654;2023-04-19T04:51:49;11.93;;;10.50;;
20884;SDS011;10602;48.000;9.654;2023-04-19T04:54:17;13.00;;;11.20;;
20884;SDS011;10602;48.000;9.654;2023-04-19T04:56:44;13.60;;;11.03;;
20884;SDS011;10602;48.000;9.654;2023-04-19T04:59:12;14.57;;;10.87;;
20884;SDS011;10602;48.000;9.654;2023-04-19T05:01:39;12.23;;;10.10;;
20884;SDS011;10602;48.000;9.654;2023-04-19T05:04:07;12.63;;;11.00;;
20884;SDS011;10602;48.000;9.654;2023-04-19T05:06:34;13.57;;;11.50;;
20884;SDS011;10602;48.000;9.654;2023-04-19T05:09:04;13.87;;;11.17;;
20884;SDS011;10602;48.000;9.654;2023-04-19T05:11:31;14.03;;;11.30;;
20884;SDS011;10602;48.000;9.654;2023-04-19T05:13:59;12.93;;;10.67;;
20884;SDS011;10602;48.000;9.654;2023-04-19T05:16:26;13.87;;;11.50;;
20884;SDS011;10602;48.000;9.654;2023-04-19T05:18:54;14.27;;;11.63;;
20884;SDS011;10602;48.000;9.654;2023-04-19T05:21:22;16.43;;;12.30;;
20884;SDS011;10602;48.000;9.654;2023-04-19T05:23:49;13.87;;;11.70;;
20884;SDS011;10602;48.000;9.654;2023-04-19T05:26:18;13.30;;;10.50;;
20884;SDS011;10602;48.000;9.654;2023-04-19T05:28:46;14.57;;;12.17;;
20884;SDS011;10602;48.000;9.654;2023-04-19T05:31:13;15.23;;;12.43;;
20884;SDS011;10602;48.000;9.654;2023-04-19T05:33:41;16.37;;;12.37;;
20884;SDS011;10602;48.000;9.654;2023-04-19T05:36:08;17.13;;;11.73;;
20884;SDS011;10602;48.000;9.654;2023-04-19T05:38:36;15.17;;;11.07;;
20884;SDS011;10602;48.000;9.654;2023-04-19T05:41:03;16.07;;;12.07;;
20884;SDS011;10602;48.000;9.654;2023-04-19T05:43:31;17.57;;;12.60;;
20884;SDS011;10602;48.000;9.654;2023-04-19T05:45:58;16.53;;;12.43;;
20884;SDS011;10602;48.000;9.654;2023-04-19T05:48:26;16.23;;;11.87;;
20884;SDS011;10602;48.000;9.654;2023-04-19T05:50:53;15.10;;;12.33;;
20884;SDS011;10602;48.000;9.654;2023-04-19T05:53:22;17.80;;;13.70;;
20884;SDS011;10602;48.000;9.654;2023-04-19T05:55:53;17.10;;;12.73;;
20884;SDS011;10602;48.000;9.654;2023-04-19T05:58:21;16.70;;;13.27;;
20884;SDS011;10602;48.000;9.654;2023-04-19T06:00:49;16.13;;;12.63;;
20884;SDS011;10602;48.000;9.654;2023-04-19T06:03:17;15.50;;;12.90;;
20884;SDS011;10602;48.000;9.654;2023-04-19T06:05:45;14.60;;;12.03;;
20884;SDS011;10602;48.000;9.654;2023-04-19T06:08:12;16.93;;;12.23;;
20884;SDS011;10602;48.000;9.654;2023-04-19T06:10:41;15.30;;;12.47;;
20884;SDS011;10602;48.000;9.654;2023-04-19T06:13:10;14.17;;;11.77;;
20884;SDS011;10602;48.000;9.654;2023-04-19T06:15:38;16.83;;;12.97;;
20884;SDS011;10602;48.000;9.654;2023-04-19T06:18:06;18.07;;;13.03;;
20884;SDS011;10602;48.000;9.654;2023-04-19T06:20:36;16.33;;;12.33;;
20884;SDS011;10602;48.000;9.654;2023-04-19T06:23:04;17.47;;;13.23;;
20884;SDS011;10602;48.000;9.654;2023-04-19T06:25:32;16.70;;;12.97;;
20884;SDS011;10602;48.000;9.654;2023-04-19T06:28:00;16.80;;;13.00;;
20884;SDS011;10602;48.000;9.654;2023-04-19T06:30:28;16.03;;;12.60;;
20884;SDS011;10602;48.000;9.654;2023-04-19T06:32:55;16.13;;;13.07;;
20884;SDS011;10602;48.000;9.654;2023-04-19T06:35:23;15.33;;;12.63;;
20884;SDS011;10602;48.000;9.654;2023-04-19T06:37:50;15.17;;;12.60;;
20884;SDS011;10602;48.000;9.654;2023-04-19T06:40:18;19.77;;;13.80;;
20884;SDS011;10602;48.000;9.654;2023-04-19T06:42:45;15.40;;;12.23;;
20884;SDS011;10602;48.000;9.654;2023-04-19T06:45:13;17.93;;;12.63;;
20884;SDS011;10602;48.000;9.654;2023-04-19T06:47:40;15.57;;;12.77;;
20884;SDS011;10602;48.000;9.654;2023-04-19T06:50:08;17.50;;;12.23;;
20884;SDS011;10602;48.000;9.654;2023-04-19T06:52:37;16.63;;;12.20;;
20884;SDS011;10602;48.000;9.654;2023-04-19T06:55:05;14.93;;;12.00;;
20884;SDS011;10602;48.000;9.654;2023-04-19T06:57:32;14.03;;;11.10;;
20884;SDS011;10602;48.000;9.654;2023-04-19T07:00:00;15.90;;;12.93;;
20884;SDS011;10602;48.000;9.654;2023-04-19T07:02:29;16.37;;;12.97;;
20884;SDS011;10602;48.000;9.654;2023-04-19T07:04:56;14.23;;;11.70;;
20884;SDS011;10602;48.000;9.654;2023-04-19T07:07:24;13.90;;;11.53;;
20884;SDS011;10602;48.000;9.654;2023-04-19T07:09:51;13.80;;;11.30;;
20884;SDS011;10602;48.000;9.654;2023-04-19T07:12:19;28.03;;;16.93;;
20884;SDS011;10602;48.000;9.654;2023-04-19T07:14:46;14.17;;;11.60;;
20884;SDS011;10602;48.000;9.654;2023-04-19T07:17:14;14.73;;;11.90;;
20884;SDS011;10602;48.000;9.654;2023-04-19T07:19:46;16.50;;;12.17;;
20884;SDS011;10602;48.000;9.654;2023-04-19T07:22:13;18.33;;;12.93;;
20884;SDS011;10602;48.000;9.654;2023-04-19T07:24:41;17.63;;;12.77;;
20884;SDS011;10602;48.000;9.654;2023-04-19T07:27:09;17.23;;;13.73;;
20884;SDS011;10602;48.000;9.654;2023-04-19T07:29:38;16.70;;;13.40;;
20884;SDS011;10602;48.000;9.654;2023-04-19T07:32:06;15.33;;;12.13;;
20884;SDS011;10602;48.000;9.654;2023-04-19T07:34:34;16.97;;;12.90;;
20884;SDS011;10602;48.000;9.654;2023-04-19T07:37:03;18.50;;;13.80;;
20884;SDS011;10602;48.000;9.654;2023-04-19T07:39:31;21.40;;;14.90;;
20884;SDS011;10602;48.000;9.654;2023-04-19T07:41:58;19.50;;;14.57;;
20884;SDS011;10602;48.000;9.654;2023-04-19T07:44:29;22.10;;;15.37;;
20884;SDS011;10602;48.000;9.654;2023-04-19T07:46:57;18.20;;;14.93;;
20884;SDS011;10602;48.000;9.654;2023-04-19T07:49:24;22.90;;;16.97;;
20884;SDS011;10602;48.000;9.654;2023-04-19T07:51:52;21.47;;;16.07;;
20884;SDS011;10602;48.000;9.654;2023-04-19T07:54:19;24.90;;;16.77;;
20884;SDS011;10602;48.000;9.654;2023-04-19T07:56:47;23.23;;;16.47;;
20884;SDS011;10602;48.000;9.654;2023-04-19T07:59:14;21.87;;;16.43;;
20884;SDS011;10602;48.000;9.654;2023-04-19T08:01:42;26.03;;;17.77;;
20884;SDS011;10602;48.000;9.654;2023-04-19T08:04:09;23.37;;;17.17;;
20884;SDS011;10602;48.000;9.654;2023-04-19T08:06:37;26.07;;;17.27;;
20884;SDS011;10602;48.000;9.654;2023-04-19T08:09:05;24.33;;;16.67;;
20884;SDS011;10602;48.000;9.654;2023-04-19T08:11:33;26.20;;;18.67;;
20884;SDS011;10602;48.000;9.654;2023-04-19T08:14:01;24.77;;;16.53;;
20884;SDS011;10602;48.000;9.654;2023-04-19T08:16:28;22.47;;;16.27;;
20884;SDS011;10602;48.000;9.654;2023-04-19T08:18:56;25.27;;;16.87;;
20884;SDS011;10602;48.000;9.654;2023-04-19T08:21:23;25.90;;;17.57;;
20884;SDS011;10602;48.000;9.654;2023-04-19T08:23:51;27.93;;;17.77;;
20884;SDS011;10602;48.000;9.654;2023-04-19T08:26:19;26.73;;;17.27;;
20884;SDS011;10602;48.000;9.654;2023-04-19T08:28:47;21.00;;;16.07;;
20884;SDS011;10602;48.000;9.654;2023-04-19T08:31:16;23.80;;;16.23;;
20884;SDS011;10602;48.000;9.654;2023-04-19T08:33:45;20.23;;;15.60;;
20884;SDS011;10602;48.000;9.654;2023-04-19T08:36:13;22.60;;;16.00;;
20884;SDS011;10602;48.000;9.654;2023-04-19T08:38:41;20.27;;;14.87;;
20884;SDS011;10602;48.000;9.654;2023-04-19T08:41:10;24.33;;;16.90;;
20884;SDS011;10602;48.000;9.654;2023-04-19T08:43:38;21.20;;;15.63;;
20884;SDS011;10602;48.000;9.654;2023-04-19T08:46:09;22.17;;;16.70;;
20884;SDS011;10602;48.000;9.654;2023-04-19T08:48:37;21.70;;;15.47;;
20884;SDS011;10602;48.000;9.654;2023-04-19T08:51:06;23.03;;;16.13;;
20884;SDS011;10602;48.000;9.654;2023-04-19T08:53:35;23.10;;;15.97;;
20884;SDS011;10602;48.000;9.654;2023-04-19T08:56:03;23.30;;;16.73;;
20884;SDS011;10602;48.000;9.654;2023-04-19T08:58:32;23.03;;;16.73;;
20884;SDS011;10602;48.000;9.654;2023-04-19T09:01:00;22.40;;;15.37;;
20884;SDS011;10602;48.000;9.654;2023-04-19T09:03:33;23.57;;;16.47;;
20884;SDS011;10602;48.000;9.654;2023-04-19T09:06:01;24.53;;;16.53;;
20884;SDS011;10602;48.000;9.654;2023-04-19T09:08:29;24.13;;;15.70;;
20884;SDS011;10602;48.000;9.654;2023-04-19T09:10:57;21.17;;;15.70;;
20884;SDS011;10602;48.000;9.654;2023-04-19T09:13:27;21.60;;;14.33;;
20884;SDS011;10602;48.000;9.654;2023-04-19T09:15:55;20.83;;;14.33;;
20884;SDS011;10602;48.000;9.654;2023-04-19T09:18:24;22.87;;;14.53;;
20884;SDS011;10602;48.000;9.654;2023-04-19T09:20:52;20.30;;;14.03;;
20884;SDS011;10602;48.000;9.654;2023-04-19T09:23:22;19.37;;;13.93;;
20884;SDS011;10602;48.000;9.654;2023-04-19T09:25:55;22.37;;;15.33;;
20884;SDS011;10602;48.000;9.654;2023-04-19T09:28:26;22.53;;;14.87;;
20884;SDS011;10602;48.000;9.654;2023-04-19T09:30:54;20.93;;;14.67;;
20884;SDS011;10602;48.000;9.654;2023-04-19T09:33:35;21.77;;;14.80;;
20884;SDS011;10602;48.000;9.654;2023-04-19T09:36:08;22.80;;;14.93;;
20884;SDS011;10602;48.000;9.654;2023-04-19T09:38:48;22.00;;;14.80;;
20884;SDS011;10602;48.000;9.654;2023-04-19T09:41:16;20.60;;;13.93;;
20884;SDS011;10602;48.000;9.654;2023-04-19T09:43:44;21.90;;;15.60;;
20884;SDS011;10602;48.000;9.654;2023-04-19T09:51:46;19.20;;;14.57;;
20884;SDS011;10602;48.000;9.654;2023-04-19T09:54:11;18.23;;;13.47;;
20884;SDS011;10602;48.000;9.654;2023-04-19T09:56:40;18.57;;;12.43;;
20884;SDS011;10602;48.000;9.654;2023-04-19T09:59:08;19.37;;;13.70;;
20884;SDS011;10602;48.000;9.654;2023-04-19T10:01:42;18.20;;;12.77;;
20884;SDS011;10602;48.000;9.654;2023-04-19T10:04:08;17.97;;;13.60;;
20884;SDS011;10602;48.000;9.654;2023-04-19T10:06:42;17.07;;;13.40;;
20884;SDS011;10602;48.000;9.654;2023-04-19T10:09:06;15.93;;;12.93;;
20884;SDS011;10602;48.000;9.654;2023-04-19T10:11:34;20.53;;;13.37;;
20884;SDS011;10602;48.000;9.654;2023-04-19T10:14:07;15.63;;;11.90;;
20884;SDS011;10602;48.000;9.654;2023-04-19T10:16:37;18.27;;;12.83;;
20884;SDS011;10602;48.000;9.654;2023-04-19T10:19:11;18.97;;;13.47;;
20884;SDS011;10602;48.000;9.654;2023-04-19T10:21:43;18.03;;;13.57;;
20884;SDS011;10602;48.000;9.654;2023-04-19T10:24:13;16.87;;;12.80;;
20884;SDS011;10602;48.000;9.654;2023-04-19T10:32:26;17.13;;;12.37;;
20884;SDS011;10602;48.000;9.654;2023-04-19T10:35:00;16.27;;;12.37;;
20884;SDS011;10602;48.000;9.654;2023-04-19T10:37:31;16.73;;;12.77;;
20884;SDS011;10602;48.000;9.654;2023-04-19T10:39:58;16.40;;;12.63;;
20884;SDS011;10602;48.000;9.654;2023-04-19T10:47:58;14.40;;;11.47;;
20884;SDS011;10602;48.000;9.654;2023-04-19T10:51:17;16.40;;;12.30;;
20884;SDS011;10602;48.000;9.654;2023-04-19T10:56:10;17.13;;;11.53;;
20884;SDS011;10602;48.000;9.654;2023-04-19T10:59:23;16.77;;;12.13;;
20884;SDS011;10602;48.000;9.654;2023-04-19T11:01:40;15.13;;;11.90;;
20884;SDS011;10602;48.000;9.654;2023-04-19T11:04:09;15.07;;;11.70;;
20884;SDS011;10602;48.000;9.654;2023-04-19T11:09:27;16.57;;;12.17;;
20884;SDS011;10602;48.000;9.654;2023-04-19T11:12:11;16.67;;;12.53;;
20884;SDS011;10602;48.000;9.654;2023-04-19T11:14:42;17.47;;;12.20;;
20884;SDS011;10602;48.000;9.654;2023-04-19T11:17:23;17.03;;;12.23;;
20884;SDS011;10602;48.000;9.654;2023-04-19T11:19:57;17.40;;;13.73;;
20884;SDS011;10602;48.000;9.654;2023-04-19T11:22:43;16.63;;;12.00;;
20884;SDS011;10602;48.000;9.654;2023-04-19T11:25:16;18.70;;;12.77;;
20884;SDS011;10602;48.000;9.654;2023-04-19T11:27:48;18.20;;;12.63;;
20884;SDS011;10602;48.000;9.654;2023-04-19T11:30:31;17.80;;;13.23;;
20884;SDS011;10602;48.000;9.654;2023-04-19T11:33:01;16.63;;;11.53;;
20884;SDS011;10602;48.000;9.654;2023-04-19T11:35:29;14.20;;;11.57;;
20884;SDS011;10602;48.000;9.654;2023-04-19T11:37:58;15.33;;;12.00;;
20884;SDS011;10602;48.000;9.654;2023-04-19T11:40:27;15.53;;;12.00;;
20884;SDS011;10602;48.000;9.654;2023-04-19T11:42:58;15.40;;;11.43;;
20884;SDS011;10602;48.000;9.654;2023-04-19T11:45:37;17.13;;;13.00;;
20884;SDS011;10602;48.000;9.654;2023-04-19T11:48:01;16.23;;;12.43;;
20884;SDS011;10602;48.000;9.654;2023-04-19T11:50:30;13.87;;;11.63;;
20884;SDS011;10602;48.000;9.654;2023-04-19T11:53:08;18.03;;;13.50;;
20884;SDS011;10602;48.000;9.654;2023-04-19T11:55:41;18.83;;;12.43;;
20884;SDS011;10602;48.000;9.654;2023-04-19T11:58:32;18.07;;;12.90;;
20884;SDS011;10602;48.000;9.654;2023-04-19T12:00:54;13.13;;;11.30;;
20884;SDS011;10602;48.000;9.654;2023-04-19T12:03:24;15.10;;;10.80;;
20884;SDS011;10602;48.000;9.654;2023-04-19T12:05:57;13.03;;;11.33;;
20884;SDS011;10602;48.000;9.654;2023-04-19T12:08:34;12.73;;;10.70;;
20884;SDS011;10602;48.000;9.654;2023-04-19T12:11:04;13.10;;;10.50;;
20884;SDS011;10602;48.000;9.654;2023-04-19T12:13:32;13.30;;;10.93;;
20884;SDS011;10602;48.000;9.654;2023-04-19T12:16:01;12.77;;;10.83;;
20884;SDS011;10602;48.000;9.654;2023-04-19T12:18:44;12.00;;;10.10;;
20884;SDS011;10602;48.000;9.654;2023-04-19T12:21:25;11.20;;;10.00;;
20884;SDS011;10602;48.000;9.654;2023-04-19T12:23:56;11.83;;;10.47;;
20884;SDS011;10602;48.000;9.654;2023-04-19T12:26:26;12.67;;;10.03;;
20884;SDS011;10602;48.000;9.654;2023-04-19T12:28:55;13.53;;;10.63;;
20884;SDS011;10602;48.000;9.654;2023-04-19T12:31:24;11.70;;;9.97;;
20884;SDS011;10602;48.000;9.654;2023-04-19T12:33:55;11.60;;;10.43;;
20884;SDS011;10602;48.000;9.654;2023-04-19T12:36:21;10.77;;;9.67;;
20884;SDS011;10602;48.000;9.654;2023-04-19T12:38:51;12.60;;;10.37;;
20884;SDS011;10602;48.000;9.654;2023-04-19T12:41:20;11.83;;;10.60;;
20884;SDS011;10602;48.000;9.654;2023-04-19T12:43:52;12.53;;;10.63;;
20884;SDS011;10602;48.000;9.654;2023-04-19T12:46:25;13.03;;;10.43;;
20884;SDS011;10602;48.000;9.654;2023-04-19T12:49:02;11.17;;;9.97;;
20884;SDS011;10602;48.000;9.654;2023-04-19T12:51:34;12.40;;;11.10;;
20884;SDS011;10602;48.000;9.654;2023-04-19T12:54:07;12.83;;;11.43;;
20884;SDS011;10602;48.000;9.654;2023-04-19T12:56:47;13.57;;;10.77;;
20884;SDS011;10602;48.000;9.654;2023-04-19T12:59:23;10.33;;;9.07;;
20884;SDS011;10602;48.000;9.654;2023-04-19T13:02:00;13.17;;;10.20;;
20884;SDS011;10602;48.000;9.654;2023-04-19T13:04:32;11.53;;;10.33;;
20884;SDS011;10602;48.000;9.654;2023-04-19T13:07:06;11.17;;;9.93;;
20884;SDS011;10602;48.000;9.654;2023-04-19T13:09:45;11.60;;;10.40;;
20884;SDS011;10602;48.000;9.654;2023-04-19T13:12:13;12.13;;;10.30;;
20884;SDS011;10602;48.000;9.654;2023-04-19T13:14:46;11.77;;;10.57;;
20884;SDS011;10602;48.000;9.654;2023-04-19T13:17:54;11.67;;;10.47;;
20884;SDS011;10602;48.000;9.654;2023-04-19T13:20:30;11.43;;;10.23;;
20884;SDS011;10602;48.000;9.654;2023-04-19T13:23:05;10.63;;;9.53;;
20884;SDS011;10602;48.000;9.654;2023-04-19T13:25:35;11.73;;;10.17;;
20884;SDS011;10602;48.000;9.654;2023-04-19T13:28:08;11.97;;;10.57;;
20884;SDS011;10602;48.000;9.654;2023-04-19T13:33:41;13.53;;;10.50;;
20884;SDS011;10602;48.000;9.654;2023-04-19T13:36:14;13.13;;;10.20;;
20884;SDS011;10602;48.000;9.654;2023-04-19T13:38:45;16.70;;;11.27;;
20884;SDS011;10602;48.000;9.654;2023-04-19T13:41:19;15.17;;;10.77;;
20884;SDS011;10602;48.000;9.654;2023-04-19T13:43:52;13.03;;;10.57;;
20884;SDS011;10602;48.000;9.654;2023-04-19T13:46:23;14.27;;;11.30;;
20884;SDS011;10602;48.000;9.654;2023-04-19T13:48:58;11.57;;;10.30;;
20884;SDS011;10602;48.000;9.654;2023-04-19T13:51:26;13.43;;;10.47;;
20884;SDS011;10602;48.000;9.654;2023-04-19T13:53:54;12.10;;;9.67;;
20884;SDS011;10602;48.000;9.654;2023-04-19T13:56:24;12.97;;;10.30;;
20884;SDS011;10602;48.000;9.654;2023-04-19T13:58:55;13.57;;;9.40;;
20884;SDS011;10602;48.000;9.654;2023-04-19T14:01:24;14.63;;;10.57;;
20884;SDS011;10602;48.000;9.654;2023-04-19T14:03:51;14.03;;;9.57;;
20884;SDS011;10602;48.000;9.654;2023-04-19T14:06:19;13.77;;;10.57;;
20884;SDS011;10602;48.000;9.654;2023-04-19T14:08:47;13.43;;;10.53;;
20884;SDS011;10602;48.000;9.654;2023-04-19T14:11:14;13.37;;;10.20;;
20884;SDS011;10602;48.000;9.654;2023-04-19T14:13:42;13.47;;;10.20;;
20884;SDS011;10602;48.000;9.654;2023-04-19T14:16:10;13.73;;;9.70;;
20884;SDS011;10602;48.000;9.654;2023-04-19T14:18:38;13.87;;;10.13;;
20884;SDS011;10602;48.000;9.654;2023-04-19T14:21:05;11.20;;;9.23;;
20884;SDS011;10602;48.000;9.654;2023-04-19T14:23:33;12.10;;;9.70;;
20884;SDS011;10602;48.000;9.654;2023-04-19T14:26:00;13.93;;;9.50;;
20884;SDS011;10602;48.000;9.654;2023-04-19T14:28:28;13.77;;;10.70;;
20884;SDS011;10602;48.000;9.654;2023-04-19T14:30:55;12.37;;;9.33;;
20884;SDS011;10602;48.000;9.654;2023-04-19T14:33:23;11.50;;;9.23;;
20884;SDS011;10602;48.000;9.654;2023-04-19T14:35:51;12.37;;;10.13;;
20884;SDS011;10602;48.000;9.654;2023-04-19T14:38:19;14.47;;;9.00;;
20884;SDS011;10602;48.000;9.654;2023-04-19T14:40:47;11.67;;;9.73;;
20884;SDS011;10602;48.000;9.654;2023-04-19T14:43:14;12.37;;;10.60;;
20884;SDS011;10602;48.000;9.654;2023-04-19T14:45:42;11.50;;;9.27;;
20884;SDS011;10602;48.000;9.654;2023-04-19T14:48:10;11.50;;;9.40;;
20884;SDS011;10602;48.000;9.654;2023-04-19T14:50:37;13.67;;;9.57;;
20884;SDS011;10602;48.000;9.654;2023-04-19T14:53:05;12.93;;;10.40;;
20884;SDS011;10602;48.000;9.654;2023-04-19T14:55:35;12.77;;;10.10;;
20884;SDS011;10602;48.000;9.654;2023-04-19T14:58:03;13.10;;;10.70;;
20884;SDS011;10602;48.000;9.654;2023-04-19T15:00:32;12.83;;;9.73;;
20884;SDS011;10602;48.000;9.654;2023-04-19T15:03:00;9.80;;;6.77;;